Time;durP1;ratioP1;P1;durP2;ratioP2;P2;SDS_P1;SDS_P2;PMS_P1;PMS_P2;Temp;Humidity;BMP_temperature;BMP_pressure;BME280_temperature;BME280_humidity;BME280_pressure;Samples;Min_cycle;Max_cycle;Signal;HPM_P1;HPM_P2
2021/08/17 00:02:22;;;;;;;3.25;1.98;;;;;;;26.31;nan;94767.09;4968598;28;20049;-72
2021/08/17 00:04:47;;;;;;;5.47;2.30;;;;;;;26.36;nan;94764.19;4933359;29;20086;-73
2021/08/17 00:07:13;;;;;;;3.33;2.03;;;;;;;26.41;nan;94759.84;4949794;29;20030;-73
2021/08/17 00:09:38;;;;;;;3.30;2.17;;;;;;;26.43;nan;94762.81;4955323;28;20566;-73
2021/08/17 00:12:04;;;;;;;4.72;2.28;;;;;;;26.43;nan;94762.81;4928935;29;20027;-73
2021/08/17 00:14:29;;;;;;;4.40;2.13;;;;;;;26.36;nan;94768.94;4930522;29;20023;-73
2021/08/17 00:16:55;;;;;;;4.95;2.20;;;;;;;26.26;nan;94762.44;4924004;28;20026;-73
2021/08/17 00:19:20;;;;;;;4.00;2.17;;;;;;;26.22;nan;94759.31;4969090;28;20037;-72
2021/08/17 00:21:46;;;;;;;3.20;2.22;;;;;;;26.21;nan;94768.78;4967308;28;20049;-72
2021/08/17 00:24:11;;;;;;;3.88;2.30;;;;;;;26.19;nan;94765.84;4967992;28;20493;-72
2021/08/17 00:26:37;;;;;;;3.00;2.15;;;;;;;26.07;nan;94764.63;4951250;28;20042;-72
2021/08/17 00:29:02;;;;;;;3.67;2.03;;;;;;;26.08;nan;94755.13;4967634;28;20053;-72
2021/08/17 00:31:27;;;;;;;4.43;2.28;;;;;;;26.11;nan;94759.56;4968641;28;20030;-72
2021/08/17 00:33:53;;;;;;;6.95;2.38;;;;;;;26.06;nan;94768.63;4968137;28;20074;-73
2021/08/17 00:36:18;;;;;;;3.00;2.10;;;;;;;26.01;nan;94772.25;4951233;28;20019;-72
2021/08/17 00:38:44;;;;;;;3.33;2.08;;;;;;;25.95;nan;94763.41;4966848;28;20033;-72
2021/08/17 00:41:09;;;;;;;4.15;2.30;;;;;;;25.99;nan;94763.09;4960092;28;20035;-72
2021/08/17 00:43:36;;;;;;;7.13;2.50;;;;;;;25.91;nan;94757.53;4948878;29;20532;-72
2021/08/17 00:46:04;;;;;;;3.88;2.35;;;;;;;25.98;nan;94762.38;4955327;28;20038;-72
2021/08/17 00:48:29;;;;;;;3.20;2.20;;;;;;;25.91;nan;94763.00;4949673;28;20022;-72
2021/08/17 00:50:55;;;;;;;4.40;2.38;;;;;;;25.94;nan;94761.94;4948399;29;20038;-73
2021/08/17 00:53:21;;;;;;;5.40;2.50;;;;;;;25.96;nan;94753.97;4948743;29;20421;-72
2021/08/17 00:55:48;;;;;;;4.80;2.38;;;;;;;26.00;nan;94748.16;4951120;28;20117;-73
2021/08/17 00:58:13;;;;;;;3.10;2.10;;;;;;;25.93;nan;94760.50;4931705;29;20038;-72
2021/08/17 01:00:39;;;;;;;4.70;2.40;;;;;;;25.95;nan;94747.00;4934099;28;20030;-72
2021/08/17 01:03:04;;;;;;;4.90;2.67;;;;;;;25.89;nan;94749.13;4968279;28;20042;-72
2021/08/17 01:05:30;;;;;;;4.32;2.70;;;;;;;25.84;nan;94752.75;4949639;28;20460;-73
2021/08/17 01:07:56;;;;;;;5.40;2.63;;;;;;;25.86;nan;94760.41;4933926;28;20033;-72
2021/08/17 01:10:21;;;;;;;4.28;2.50;;;;;;;25.78;nan;94754.09;4938569;29;20714;-72
2021/08/17 01:12:47;;;;;;;2.90;2.05;;;;;;;25.71;nan;94749.31;4949806;29;20031;-72
2021/08/17 01:15:12;;;;;;;5.32;2.45;;;;;;;25.65;nan;94706.91;4949956;28;20130;-73
2021/08/17 01:17:38;;;;;;;4.97;2.80;;;;;;;25.64;nan;94760.13;4950863;28;20445;-73
2021/08/17 01:20:04;;;;;;;5.43;1.90;;;;;;;25.65;nan;94756.16;4967500;28;20031;-73
2021/08/17 01:22:30;;;;;;;4.65;2.60;;;;;;;25.62;nan;94757.94;4966865;28;20026;-73
2021/08/17 01:24:55;;;;;;;4.25;2.60;;;;;;;25.55;nan;94752.38;4967788;28;20516;-73
2021/08/17 01:27:21;;;;;;;3.80;2.45;;;;;;;25.54;nan;94756.38;4964288;28;20480;-73
2021/08/17 01:29:46;;;;;;;3.28;2.13;;;;;;;25.55;nan;94752.38;4948983;29;20034;-73
2021/08/17 01:32:15;;;;;;;3.72;2.40;;;;;;;25.48;nan;94747.53;4947867;29;20054;-73
2021/08/17 01:34:41;;;;;;;3.60;2.38;;;;;;;25.45;nan;94756.81;4942423;28;20038;-73
2021/08/17 01:37:06;;;;;;;5.22;2.70;;;;;;;25.39;nan;94756.19;4967800;28;20030;-73
2021/08/17 01:39:32;;;;;;;5.05;2.50;;;;;;;25.31;nan;94760.84;4966754;28;20035;-74
2021/08/17 01:41:57;;;;;;;7.05;2.78;;;;;;;25.32;nan;94756.84;4967169;28;20441;-73
2021/08/17 01:44:23;;;;;;;3.70;2.63;;;;;;;25.25;nan;94757.47;4966401;28;20026;-72
2021/08/17 01:46:48;;;;;;;4.57;2.72;;;;;;;25.28;nan;94761.88;4966943;28;20522;-72
2021/08/17 01:49:17;;;;;;;3.45;2.40;;;;;;;25.19;nan;94770.50;4966074;28;20050;-72
2021/08/17 01:51:47;;;;;;;4.43;2.80;;;;;;;25.19;nan;94759.59;4967291;28;20038;-73
2021/08/17 01:54:13;;;;;;;3.43;2.30;;;;;;;25.19;nan;94781.44;4935758;29;20433;-72
2021/08/17 01:56:38;;;;;;;3.78;2.53;;;;;;;25.10;100.00;82793.94;4930997;29;20275;-72
2021/08/17 01:59:04;;;;;;;5.18;2.75;;;;;;;25.10;nan;94765.47;4957178;28;20033;-73
2021/08/17 02:01:29;;;;;;;5.35;2.75;;;;;;;25.06;nan;94762.31;4967056;28;20038;-73
2021/08/17 02:03:55;;;;;;;4.28;2.63;;;;;;;25.05;nan;94760.84;4965504;28;20444;-72
2021/08/17 02:06:20;;;;;;;3.85;2.80;;;;;;;25.02;nan;94761.91;4949915;28;20031;-72
2021/08/17 02:08:46;;;;;;;4.03;3.13;;;;;;;24.97;nan;94765.44;4965257;28;20579;-73
2021/08/17 02:11:11;;;;;;;4.60;2.67;;;;;;;24.98;nan;94755.97;4930747;28;20046;-73
2021/08/17 02:13:37;;;;;;;6.32;2.95;;;;;;;24.91;nan;94756.59;4938703;28;20026;-73
2021/08/17 02:16:02;;;;;;;4.63;2.70;;;;;;;24.88;nan;94751.47;4966932;28;20386;-73
2021/08/17 02:18:30;;;;;;;4.35;2.80;;;;;;;24.86;nan;94754.00;4965499;28;20046;-73
2021/08/17 02:20:59;;;;;;;4.28;2.65;;;;;;;24.85;nan;94753.25;4966776;28;20031;-73
2021/08/17 02:23:28;;;;;;;4.90;2.80;;;;;;;24.91;nan;94751.16;4965227;28;20695;-72
2021/08/17 02:25:53;;;;;;;5.53;2.50;;;;;;;24.83;nan;94755.78;4948317;28;20035;-73
2021/08/17 02:28:19;;;;;;;4.07;2.70;;;;;;;24.82;nan;94758.31;4945457;28;20078;-73
2021/08/17 02:30:48;;;;;;;5.97;2.80;;;;;;;24.82;nan;94762.47;4947673;29;20042;-73
2021/08/17 02:33:13;;;;;;;5.25;2.55;;;;;;;24.82;nan;94759.75;4946812;29;20102;-73
2021/08/17 02:35:40;;;;;;;4.57;2.35;;;;;;;24.67;nan;94758.06;4964664;28;20461;-72
2021/08/17 02:38:05;;;;;;;5.57;2.47;;;;;;;24.69;nan;94761.00;4965638;28;20034;-73
2021/08/17 02:40:32;;;;;;;4.60;3.00;;;;;;;24.64;nan;94759.13;4966476;28;20126;-72
2021/08/17 02:42:57;;;;;;;4.82;2.75;;;;;;;24.63;nan;94758.38;4943334;29;20025;-73
2021/08/17 02:45:22;;;;;;;5.00;2.78;;;;;;;-140.79;nan;94764.16;4930283;29;20179;-73
2021/08/17 02:47:48;;;;;;;5.18;2.78;;;;;;;24.51;nan;94761.81;4948860;28;20038;-73
2021/08/17 02:50:13;;;;;;;4.20;3.00;;;;;;;24.50;nan;94754.91;4965299;28;20029;-73
2021/08/17 02:52:39;;;;;;;4.43;2.88;;;;;;;24.46;nan;94755.19;4964929;28;20027;-73
2021/08/17 02:55:06;;;;;;;4.28;2.58;;;;;;;24.48;nan;94757.41;4966905;28;20023;-73
2021/08/17 02:57:31;;;;;;;4.30;2.72;;;;;;;24.44;nan;94751.53;4953903;28;20028;-73
2021/08/17 02:59:57;;;;;;;6.25;3.08;;;;;;;24.30;nan;94752.72;4962475;28;20398;-72
2021/08/17 03:02:22;;;;;;;6.35;2.72;;;;;;;24.43;nan;94750.06;4936298;28;20504;-72
2021/08/17 03:04:48;;;;;;;5.82;2.50;;;;;;;24.47;nan;94750.50;4934783;28;20038;-73
2021/08/17 03:07:13;;;;;;;4.05;2.45;;;;;;;24.38;nan;94753.63;4950520;29;20502;-72
2021/08/17 03:09:38;;;;;;;4.03;2.60;;;;;;;24.28;nan;94755.25;4950730;28;20031;-73
2021/08/17 03:12:04;;;;;;;6.15;3.10;;;;;;;24.31;nan;94759.66;4957825;28;20089;-73
2021/08/17 03:14:29;;;;;;;6.05;2.92;;;;;;;24.34;nan;94759.38;4957936;28;20038;-73
2021/08/17 03:16:55;;;;;;;4.72;2.80;;;;;;;24.31;nan;94753.47;4943614;28;20029;-72
2021/08/17 03:19:20;;;;;;;4.00;2.83;;;;;;;24.27;nan;94753.75;4951282;28;20097;-72
2021/08/17 03:21:46;;;;;;;5.18;3.17;;;;;;;24.19;nan;94752.91;4950647;28;20042;-72
2021/08/17 03:24:11;;;;;;;5.32;2.75;;;;;;;24.23;nan;94758.81;4952417;28;20034;-72
2021/08/17 03:26:37;;;;;;;4.15;2.70;;;;;;;24.25;nan;94766.47;4969135;28;20027;-72
2021/08/17 03:29:02;;;;;;;4.22;2.70;;;;;;;24.17;nan;94760.88;4951613;28;20501;-72
2021/08/17 03:31:28;;;;;;;5.55;3.00;;;;;;;24.19;nan;94763.09;4952659;28;20525;-73
2021/08/17 03:33:53;;;;;;;5.82;2.83;;;;;;;24.11;nan;94762.97;4968607;28;20035;-73
2021/08/17 03:36:19;;;;;;;5.65;2.90;;;;;;;24.05;nan;94765.03;4970069;28;20019;-72
2021/08/17 03:38:44;;;;;;;4.18;2.63;;;;;;;24.05;nan;94759.59;4950520;28;20343;-73
2021/08/17 03:41:10;;;;;;;4.75;2.85;;;;;;;24.06;nan;94750.13;4970062;28;20109;-73
2021/08/17 03:43:36;;;;;;;5.18;2.80;;;;;;;24.04;nan;94758.09;4950811;28;20023;-73
2021/08/17 03:46:02;;;;;;;5.57;2.90;;;;;;;24.08;nan;94764.00;4936793;28;20031;-73
2021/08/17 03:48:28;;;;;;;5.25;2.75;;;;;;;24.01;nan;94759.16;4968089;28;20123;-73
2021/08/17 03:50:56;;;;;;;5.30;3.10;;;;;;;24.05;nan;94765.03;4969464;28;20030;-73
2021/08/17 03:53:21;;;;;;;5.70;3.00;;;;;;;23.98;nan;94754.72;4967895;28;20544;-73
2021/08/17 03:55:47;;;;;;;4.28;2.97;;;;;;;24.02;nan;94755.16;4969740;28;20025;-73
2021/08/17 03:58:12;;;;;;;6.80;2.95;;;;;;;24.05;nan;94770.50;4968237;28;20568;-73
2021/08/17 04:00:38;;;;;;;6.55;3.08;;;;;;;24.05;nan;94765.03;4950559;28;20062;-73
2021/08/17 04:03:04;;;;;;;5.07;2.72;;;;;;;23.98;nan;94765.63;4968913;28;20042;-73
2021/08/17 04:05:29;;;;;;;4.55;2.80;;;;;;;23.90;nan;94764.03;4968432;28;20038;-72
2021/08/17 04:07:55;;;;;;;4.30;2.78;;;;;;;23.90;nan;94759.31;4968017;28;20042;-74
2021/08/17 04:10:20;;;;;;;5.40;3.30;;;;;;;23.93;nan;94762.97;4946048;28;20122;-73
2021/08/17 04:12:46;;;;;;;4.97;3.03;;;;;;;23.91;nan;94755.31;4922643;29;20599;-73
2021/08/17 04:15:11;;;;;;;5.28;3.20;;;;;;;23.94;nan;94759.75;4952784;28;20042;-74
2021/08/17 04:17:37;;;;;;;5.57;3.28;;;;;;;23.93;nan;94763.75;4949799;29;20094;-74
2021/08/17 04:20:04;;;;;;;5.38;3.38;;;;;;;23.94;nan;94754.28;4947466;28;20062;-74
2021/08/17 04:22:29;;;;;;;8.00;3.30;;;;;;;23.98;nan;94759.47;4949467;29;20027;-72
2021/08/17 04:24:54;;;;;;;3.88;2.83;;;;;;;23.94;nan;94754.28;4945383;28;20037;-71
2021/08/17 04:27:20;;;;;;;5.82;3.28;;;;;;;23.87;nan;94754.19;4967700;28;20022;-73
2021/08/17 04:29:45;;;;;;;5.78;3.42;;;;;;;23.92;nan;94756.81;4951609;28;20750;-73
2021/08/17 04:32:12;;;;;;;5.28;3.08;;;;;;;23.94;nan;94759.75;4968419;28;20042;-73
2021/08/17 04:34:37;;;;;;;5.18;3.10;;;;;;;23.92;nan;94751.34;4950859;28;20034;-73
2021/08/17 04:37:03;;;;;;;6.55;3.00;;;;;;;23.99;nan;94756.22;4968518;28;20038;-72
2021/08/17 04:39:28;;;;;;;6.82;3.30;;;;;;;23.97;nan;94757.97;4964640;28;20686;-72
2021/08/17 04:41:54;;;;;;;4.93;2.88;;;;;;;23.92;nan;94756.81;4968880;28;20448;-72
2021/08/17 04:44:19;;;;;;;7.72;3.08;;;;;;;23.97;nan;94758.69;4967023;28;20030;-72
2021/08/17 04:46:45;;;;;;;5.70;2.97;;;;;;;23.99;nan;94761.66;4946771;28;20035;-72
2021/08/17 04:49:10;;;;;;;5.80;3.30;;;;;;;23.97;nan;94764.16;4963206;28;20045;-80
2021/08/17 04:51:36;;;;;;;4.75;3.13;;;;;;;24.10;nan;94760.75;4934524;29;20035;-72
2021/08/17 04:54:01;;;;;;;6.65;3.10;;;;;;;24.23;nan;94779.88;4948847;29;20490;-72
2021/08/17 04:56:27;;;;;;;4.45;3.13;;;;;;;24.29;nan;94756.72;4946729;29;20561;-73
2021/08/17 04:58:54;;;;;;;6.88;3.47;;;;;;;24.43;nan;94766.44;4948784;29;20550;-70
2021/08/17 05:01:19;;;;;;;8.25;3.40;;;;;;;24.52;nan;94763.31;4949049;28;20023;-70
2021/08/17 05:03:44;;;;;;;8.23;3.03;;;;;;;24.62;nan;94756.16;4931235;28;20054;-68
2021/08/17 05:06:10;;;;;;;7.18;3.15;;;;;;;24.71;nan;94763.94;4947924;29;20031;-70
2021/08/17 05:08:36;;;;;;;6.68;3.47;;;;;;;24.82;nan;94761.03;4949289;29;20505;-67
2021/08/17 05:11:01;;;;;;;5.97;3.47;;;;;;;24.92;nan;94763.56;4919279;29;20031;-68
2021/08/17 05:13:26;;;;;;;7.85;3.33;;;;;;;25.02;nan;94761.91;4948013;29;20667;-68
2021/08/17 05:15:52;;;;;;;5.85;3.80;;;;;;;25.15;nan;94764.63;4947401;29;20023;-69
2021/08/17 05:18:17;;;;;;;4.57;3.53;;;;;;;25.25;nan;94757.47;4948936;28;20082;-70
2021/08/17 05:20:43;;;;;;;5.78;3.45;;;;;;;25.40;nan;94758.38;4949014;28;20098;-71
2021/08/17 05:23:08;;;;;;;7.57;3.60;;;;;;;25.30;nan;94759.34;4949406;28;20023;-70
2021/08/17 05:25:34;;;;;;;7.65;3.67;;;;;;;25.45;nan;94765.00;4951255;29;20521;-71
2021/08/17 05:27:59;;;;;;;8.68;3.80;;;;;;;25.60;nan;94759.72;4949400;29;20023;-73
2021/08/17 05:30:24;;;;;;;7.25;3.80;;;;;;;25.76;nan;94767.59;4952225;28;20023;-72
2021/08/17 05:32:51;;;;;;;11.10;4.43;;;;;;;25.92;nan;94769.97;4951392;29;20043;-72
2021/08/17 05:35:17;;;;;;;11.50;4.35;;;;;;;26.06;nan;94773.38;4947101;29;20165;-75
2021/08/17 05:37:42;;;;;;;11.52;4.30;;;;;;;26.22;nan;94775.75;4948581;29;20028;-72
2021/08/17 05:40:08;;;;;;;7.82;4.88;;;;;;;26.28;nan;94773.63;4949126;29;20038;-71
2021/08/17 05:42:33;;;;;;;14.45;4.43;;;;;;;26.38;nan;94772.63;4949552;29;20023;-71
2021/08/17 05:44:59;;;;;;;10.60;5.07;;;;;;;26.51;nan;94780.03;4947353;29;20038;-71
2021/08/17 05:47:25;;;;;;;8.65;4.50;;;;;;;26.55;nan;94774.97;4947576;29;20026;-71
2021/08/17 05:49:51;;;;;;;9.07;4.53;;;;;;;26.67;nan;94776.16;4947353;29;20031;-72
2021/08/17 05:52:16;;;;;;;9.48;4.43;;;;;;;26.76;nan;94778.41;4947653;29;20501;-73
2021/08/17 05:54:42;;;;;;;9.40;4.22;;;;;;;26.89;nan;94766.13;4945687;29;20035;-71
2021/08/17 05:57:07;;;;;;;6.50;3.75;;;;;;;27.00;nan;94771.28;4945604;29;20030;-71
2021/08/17 05:59:33;;;;;;;11.70;4.78;;;;;;;27.07;nan;94770.63;4947364;29;20498;-71
2021/08/17 06:01:59;;;;;;;12.02;4.95;;;;;;;27.20;nan;94765.00;4946574;29;20034;-71
2021/08/17 06:04:25;;;;;;;8.50;4.15;;;;;;;27.28;nan;94774.75;4947521;29;20489;-72
2021/08/17 06:06:50;;;;;;;10.07;4.68;;;;;;;27.37;nan;94765.28;4947280;29;20023;-71
2021/08/17 06:09:16;;;;;;;12.35;4.38;;;;;;;27.41;nan;94771.16;4946328;29;20031;-70
2021/08/17 06:11:42;;;;;;;7.10;3.80;;;;;;;27.40;nan;94775.19;4929131;29;20126;-73
2021/08/17 06:14:07;;;;;;;10.10;4.03;;;;;;;27.49;nan;94777.44;4946052;29;20035;-71
2021/08/17 06:16:33;;;;;;;9.02;4.32;;;;;;;27.55;nan;94764.28;4945981;29;20469;-71
2021/08/17 06:18:59;;;;;;;9.32;4.22;;;;;;;27.70;nan;94764.34;4945258;29;20050;-71
2021/08/17 06:21:25;;;;;;;8.02;3.85;;;;;;;27.68;nan;94755.94;4947451;29;20502;-72
2021/08/17 06:23:50;;;;;;;8.27;4.00;;;;;;;27.69;nan;94762.91;4929697;29;20047;-71
2021/08/17 06:26:16;;;;;;;7.95;3.80;;;;;;;27.80;nan;94758.53;4946856;29;20030;-71
2021/08/17 06:28:41;;;;;;;10.13;4.35;;;;;;;27.85;nan;94754.16;4929566;29;20035;-73
2021/08/17 06:31:07;;;;;;;9.55;4.30;;;;;;;27.74;nan;94749.75;4945182;29;20441;-71
2021/08/17 06:33:33;;;;;;;8.50;4.30;;;;;;;27.90;nan;94756.72;4944103;29;20055;-71
2021/08/17 06:35:58;;;;;;;8.07;3.75;;;;;;;27.93;nan;94743.94;4937698;28;20062;-71
2021/08/17 06:38:23;;;;;;;8.13;3.65;;;;;;;27.95;nan;94753.09;4949655;28;20030;-71
2021/08/17 06:40:49;;;;;;;10.43;4.13;;;;;;;28.01;nan;94745.44;4946604;28;20030;-71
2021/08/17 06:43:14;;;;;;;6.82;3.90;;;;;;;28.10;nan;94746.91;4947556;29;20031;-73
2021/08/17 06:45:40;;;;;;;8.15;3.65;;;;;;;28.13;nan;94746.56;4947261;28;20087;-70
2021/08/17 06:48:05;;;;;;;11.43;3.92;;;;;;;28.14;nan;94742.53;4946697;29;20023;-72
2021/08/17 06:50:31;;;;;;;6.15;3.50;;;;;;;28.16;nan;94740.00;4939778;29;20102;-72
2021/08/17 06:52:56;;;;;;;6.60;3.55;;;;;;;28.16;nan;94740.00;4943511;29;20485;-72
2021/08/17 06:55:22;;;;;;;8.15;3.55;;;;;;;28.16;nan;94740.00;4942848;29;20031;-72
2021/08/17 06:57:47;;;;;;;8.02;3.78;;;;;;;28.17;nan;94735.94;4941745;29;20083;-73
2021/08/17 07:00:13;;;;;;;8.20;3.58;;;;;;;28.19;nan;94738.91;4944393;28;20026;-73
2021/08/17 07:02:38;;;;;;;5.90;3.40;;;;;;;28.18;nan;94731.94;4938570;29;20142;-72
2021/08/17 07:05:04;;;;;;;5.90;3.63;;;;;;;28.17;nan;94735.22;4933990;29;20087;-73
2021/08/17 07:07:30;;;;;;;5.88;3.13;;;;;;;28.19;nan;94744.38;4933638;29;20108;-73
2021/08/17 07:09:55;;;;;;;5.13;3.63;;;;;;;28.16;nan;94731.75;4925887;29;20035;-72
2021/08/17 07:12:21;;;;;;;4.82;3.20;;;;;;;28.16;nan;94745.47;4943015;28;20034;-72
2021/08/17 07:14:46;;;;;;;5.35;3.30;;;;;;;28.13;nan;94735.59;4945624;29;20027;-72
2021/08/17 07:17:11;;;;;;;20.83;4.13;;;;;;;28.14;nan;94737.03;4944283;29;20043;-72
2021/08/17 07:19:37;;;;;;;7.90;3.50;;;;;;;28.14;nan;94737.03;4945517;29;20034;-73
2021/08/17 07:22:03;;;;;;;6.43;3.35;;;;;;;28.18;nan;94726.44;4943910;28;20039;-72
2021/08/17 07:24:28;;;;;;;5.97;3.38;;;;;;;28.17;nan;94735.94;4942373;29;20105;-72
2021/08/17 07:26:54;;;;;;;5.28;3.25;;;;;;;28.14;nan;94731.53;4945257;29;20128;-72
2021/08/17 07:29:20;;;;;;;4.93;3.13;;;;;;;28.18;nan;94737.41;4942199;28;20034;-72
2021/08/17 07:31:45;;;;;;;5.28;3.47;;;;;;;28.22;nan;94732.31;4940864;29;20090;-72
2021/08/17 07:34:11;;;;;;;4.10;2.80;;;;;;;28.22;nan;94731.56;4942113;28;20031;-72
2021/08/17 07:36:36;;;;;;;5.32;3.30;;;;;;;28.21;nan;94730.84;4944492;29;20035;-72
2021/08/17 07:39:06;;;;;;;5.85;3.22;;;;;;;28.23;nan;94734.47;4945152;28;20031;-72
2021/08/17 07:41:31;;;;;;;;;;;;;;;28.24;nan;94729.72;4943884;29;20492;-72
2021/08/17 07:43:57;;;;;;;5.10;3.22;;;;;;;28.24;nan;94729.72;4942192;28;19918;-72
2021/08/17 07:46:22;;;;;;;4.90;3.28;;;;;;;28.25;nan;94725.69;4940959;28;20035;-72
2021/08/17 07:48:48;;;;;;;5.70;2.55;;;;;;;28.27;nan;94728.63;4945560;29;20023;-72
2021/08/17 07:51:14;;;;;;;6.53;3.03;;;;;;;28.28;nan;94735.59;4947317;29;20066;-72
2021/08/17 07:53:39;;;;;;;4.35;2.95;;;;;;;28.28;nan;94730.09;4930684;29;20031;-72
2021/08/17 07:56:05;;;;;;;4.38;3.17;;;;;;;28.28;nan;94721.84;4946966;29;20615;-71
2021/08/17 07:58:30;;;;;;;5.35;3.30;;;;;;;28.27;nan;94723.16;4945779;28;20038;-72
2021/08/17 08:00:55;;;;;;;5.47;3.75;;;;;;;28.26;nan;94727.88;4947999;29;20023;-72
2021/08/17 08:03:21;;;;;;;5.40;3.13;;;;;;;28.27;nan;94723.88;4947479;29;20046;-72
2021/08/17 08:05:46;;;;;;;4.70;3.40;;;;;;;28.25;nan;94725.69;4942870;29;20027;-72
2021/08/17 08:08:12;;;;;;;5.65;3.50;;;;;;;28.23;nan;94722.78;4948361;29;20035;-72
2021/08/17 08:10:37;;;;;;;6.47;3.10;;;;;;;28.27;nan;94718.38;4928493;29;20057;-72
2021/08/17 08:13:03;;;;;;;4.25;3.20;;;;;;;28.27;nan;94723.88;4941941;29;20036;-79
2021/08/17 08:15:28;;;;;;;5.63;3.17;;;;;;;28.26;nan;94716.19;4919102;29;20027;-83
2021/08/17 08:17:54;;;;;;;5.22;3.28;;;;;;;28.27;nan;94715.63;4945381;28;20023;-72
2021/08/17 08:20:20;;;;;;;6.68;3.20;;;;;;;28.22;nan;94704.84;4948709;29;20023;-72
2021/08/17 08:22:46;;;;;;;8.13;4.25;;;;;;;28.27;nan;94706.66;4945263;29;20054;-72
2021/08/17 08:25:11;;;;;;;7.60;4.10;;;;;;;28.32;nan;94703.00;4945528;29;20461;-72
2021/08/17 08:27:37;;;;;;;8.90;3.60;;;;;;;28.31;nan;94707.00;4945620;28;20293;-72
2021/08/17 08:30:03;;;;;;;5.57;3.50;;;;;;;28.23;nan;94696.03;4944323;29;20036;-72
2021/08/17 08:32:29;;;;;;;8.68;3.83;;;;;;;28.32;nan;94703.00;4935744;29;20019;-80
2021/08/17 08:34:54;;;;;;;7.20;4.00;;;;;;;28.30;nan;94700.78;4943990;28;20039;-73
2021/08/17 08:37:19;;;;;;;7.55;3.58;;;;;;;28.31;nan;94693.28;4929075;28;20042;-73
2021/08/17 08:39:45;;;;;;;6.78;3.60;;;;;;;28.34;nan;94694.94;4933666;28;20811;-71
2021/08/17 08:42:11;;;;;;;9.85;3.80;;;;;;;28.37;nan;94699.31;4929103;29;20024;-71
2021/08/17 08:44:36;;;;;;;7.57;3.70;;;;;;;28.34;nan;94694.94;4941646;28;20027;-76
2021/08/17 08:47:02;;;;;;;8.73;3.50;;;;;;;28.34;nan;94692.19;4947662;29;20035;-72
2021/08/17 08:49:28;;;;;;;7.13;3.75;;;;;;;28.35;nan;94685.41;4935910;28;20046;-73
2021/08/17 08:51:54;;;;;;;4.95;3.20;;;;;;;28.26;nan;94683.22;4930927;29;20027;-76
2021/08/17 08:54:19;;;;;;;5.43;3.33;;;;;;;28.32;nan;94686.50;4943921;28;20097;-71
2021/08/17 08:56:45;;;;;;;7.47;3.65;;;;;;;28.34;nan;94672.97;4940874;29;20019;-74
2021/08/17 08:59:10;;;;;;;7.05;3.20;;;;;;;28.39;nan;94669.31;4944482;28;20019;-75
2021/08/17 09:01:36;;;;;;;7.60;3.50;;;;;;;28.36;nan;94675.91;4947386;28;20458;-76
2021/08/17 09:04:01;;;;;;;5.93;3.90;;;;;;;28.00;nan;94677.34;4946299;29;20521;-73
2021/08/17 09:06:28;;;;;;;5.95;3.80;;;;;;;27.74;nan;94666.66;4948512;28;20043;-79
2021/08/17 09:09:04;;;;;;;7.18;3.72;;;;;;;27.55;nan;94662.78;4931934;29;20057;-75
2021/08/17 09:11:30;;;;;;;6.25;3.60;;;;;;;27.42;nan;94662.91;4933835;29;20128;-81
2021/08/17 09:13:55;;;;;;;8.23;3.65;;;;;;;27.41;nan;94655.94;4942474;28;20102;-75
2021/08/17 09:16:27;;;;;;;5.18;3.88;;;;;;;27.23;nan;94646.03;4946051;29;20030;-75
2021/08/17 09:18:53;;;;;;;6.55;3.75;;;;;;;27.12;nan;94640.88;4931068;29;20031;-76
2021/08/17 09:21:39;;;;;;;6.03;3.80;;;;;;;27.09;nan;94652.19;4932984;28;20509;-75
2021/08/17 09:24:21;;;;;;;6.53;3.78;;;;;;;27.20;nan;94647.09;4931022;29;20027;-72
2021/08/17 09:26:57;;;;;;;5.00;3.78;;;;;;;27.27;nan;94651.91;4947090;28;20434;-76
2021/08/17 09:29:22;;;;;;;6.45;3.70;;;;;;;27.34;nan;94645.72;4927828;28;20030;-73
2021/08/17 09:31:48;;;;;;;5.88;3.72;;;;;;;27.40;nan;94651.75;4946319;29;20023;-74
2021/08/17 09:34:15;;;;;;;5.68;3.95;;;;;;;27.59;nan;94644.69;4930393;29;20498;-74
2021/08/17 09:36:41;;;;;;;5.78;3.50;;;;;;;27.76;nan;94631.19;4938821;28;20038;-74
2021/08/17 09:39:07;;;;;;;5.68;3.67;;;;;;;27.93;nan;94634.84;4930142;29;20524;-73
2021/08/17 09:41:33;;;;;;;4.43;3.30;;;;;;;27.94;nan;94641.81;4940202;28;20102;-75
2021/08/17 09:44:05;;;;;;;4.82;3.00;;;;;;;27.99;nan;94632.66;4929647;29;20863;-74
2021/08/17 09:46:34;;;;;;;5.75;3.40;;;;;;;28.01;nan;94630.13;4941921;28;20519;-71
2021/08/17 09:49:19;;;;;;;5.25;3.30;;;;;;;28.01;nan;94630.13;4926506;29;20533;-78
2021/08/17 09:51:44;;;;;;;7.65;4.35;;;;;;;28.07;nan;94622.44;4944161;29;20069;-77
2021/08/17 09:54:15;;;;;;;6.25;3.38;;;;;;;28.07;nan;94627.91;4945926;28;20023;-72
2021/08/17 09:56:41;;;;;;;5.68;3.20;;;;;;;28.14;nan;94626.47;4941496;29;20027;-72
2021/08/17 09:59:07;;;;;;;4.22;3.10;;;;;;;28.18;nan;94621.34;4901489;28;20049;-74
2021/08/17 10:01:32;;;;;;;8.88;3.50;;;;;;;28.22;nan;94627.94;4936690;29;20071;-72
2021/08/17 10:04:00;;;;;;;4.97;3.63;;;;;;;28.30;nan;94623.88;4944212;28;20212;-73
2021/08/17 10:06:26;;;;;;;5.30;3.10;;;;;;;28.34;nan;94623.50;4944916;29;20494;-73
2021/08/17 10:08:52;;;;;;;5.25;3.50;;;;;;;28.34;nan;94618.00;4944115;29;20086;-73
2021/08/17 10:11:18;;;;;;;4.80;3.30;;;;;;;28.42;nan;94624.25;4927883;29;20027;-72
2021/08/17 10:13:44;;;;;;;6.15;3.30;;;;;;;28.42;nan;94618.75;4943732;28;20041;-73
2021/08/17 10:16:10;;;;;;;6.90;3.42;;;;;;;28.50;nan;94619.47;4929028;29;21494;-73
2021/08/17 10:18:36;;;;;;;5.18;3.17;;;;;;;28.53;nan;94623.84;4946312;29;20023;-72
2021/08/17 10:21:02;;;;;;;6.75;3.25;;;;;;;28.55;nan;94615.78;4944870;29;20054;-71
2021/08/17 10:23:28;;;;;;;5.10;3.28;;;;;;;28.57;nan;94613.97;4943755;28;20430;-71
2021/08/17 10:25:55;;;;;;;5.22;3.40;;;;;;;28.64;nan;94601.47;4959393;28;20360;-76
2021/08/17 10:28:26;;;;;;;6.40;3.65;;;;;;;28.55;nan;94615.78;4928497;29;20086;-71
2021/08/17 10:30:52;;;;;;;4.85;2.95;;;;;;;28.35;nan;94600.25;4943584;29;20122;-71
2021/08/17 10:33:37;;;;;;;7.13;4.43;;;;;;;28.23;nan;94601.94;4928669;29;20038;-72
2021/08/17 10:36:02;;;;;;;6.43;4.15;;;;;;;28.03;nan;94600.09;4927760;29;20090;-72
2021/08/17 10:38:31;;;;;;;6.75;3.80;;;;;;;27.85;nan;94595.69;4944780;29;20035;-72
2021/08/17 10:40:56;;;;;;;9.90;3.70;;;;;;;27.63;nan;94600.44;4944635;29;20035;-71
2021/08/17 10:43:27;;;;;;;6.00;3.47;;;;;;;27.53;nan;94591.28;4942897;28;20043;-73
2021/08/17 10:46:00;;;;;;;5.15;3.40;;;;;;;27.47;nan;94593.44;4948153;28;20047;-73
2021/08/17 10:49:29;;;;;;;6.57;3.88;;;;;;;27.36;nan;94582.81;4942622;29;20027;-72
2021/08/17 10:51:29;;;;;;;6.20;3.55;;;;;;;27.39;nan;94581.72;4940585;28;20043;-73
2021/08/17 10:54:03;;;;;;;6.07;4.00;;;;;;;27.32;nan;94571.47;4941247;29;20024;-73
2021/08/17 10:56:30;;;;;;;6.82;4.30;;;;;;;27.33;nan;94567.44;4940992;29;20027;-72
2021/08/17 10:58:59;;;;;;;6.82;4.07;;;;;;;27.21;nan;94560.84;4941762;29;20097;-73
2021/08/17 11:01:30;;;;;;;5.20;3.78;;;;;;;27.04;nan;94568.84;4929720;29;20023;-72
2021/08/17 11:04:17;;;;;;;5.93;3.72;;;;;;;26.89;nan;94563.31;4947055;29;20039;-73
2021/08/17 11:06:47;;;;;;;5.68;3.78;;;;;;;26.76;nan;94559.22;4946755;29;20213;-73
2021/08/17 11:09:19;;;;;;;5.18;3.38;;;;;;;26.62;nan;94549.66;4946795;29;20039;-72
2021/08/17 11:12:08;;;;;;;4.78;3.50;;;;;;;26.57;nan;94547.81;4938289;29;20410;-73
2021/08/17 11:14:38;;;;;;;5.07;3.60;;;;;;;26.47;nan;94549.59;4940341;28;20059;-73
2021/08/17 11:17:05;;;;;;;6.55;3.70;;;;;;;26.49;nan;94539.56;4921352;29;20043;-73
2021/08/17 11:19:38;;;;;;;5.03;4.20;;;;;;;26.51;nan;94539.75;4935337;29;20038;-72
2021/08/17 11:22:05;;;;;;;5.57;3.92;;;;;;;26.56;nan;94535.38;4925146;29;20027;-73
2021/08/17 11:24:30;;;;;;;6.05;3.65;;;;;;;26.71;nan;94538.19;4948761;29;20465;-72
2021/08/17 11:27:06;;;;;;;5.50;3.78;;;;;;;26.81;nan;94529.63;4949733;29;20122;-73
2021/08/17 11:29:51;;;;;;;5.45;3.67;;;;;;;26.91;nan;94527.88;4948167;29;20035;-72
2021/08/17 11:32:31;;;;;;;5.80;3.85;;;;;;;27.04;nan;94530.47;4949096;29;20035;-73
2021/08/17 11:34:58;;;;;;;5.70;3.80;;;;;;;27.08;nan;94530.81;4943155;29;20039;-73
2021/08/17 11:37:24;;;;;;;4.30;3.28;;;;;;;27.09;nan;94521.34;4931617;29;20462;-73
2021/08/17 11:39:51;;;;;;;6.78;3.30;;;;;;;27.12;nan;94514.75;4947668;29;20027;-73
2021/08/17 11:42:27;;;;;;;5.10;3.30;;;;;;;27.13;nan;94516.25;4949434;29;20062;-73
2021/08/17 11:44:56;;;;;;;4.70;3.33;;;;;;;27.13;nan;94516.25;4947935;29;20035;-73
2021/08/17 11:47:21;;;;;;;5.47;3.33;;;;;;;27.11;nan;94524.25;4948830;29;20458;-73